Time;durP1;ratioP1;P1;durP2;ratioP2;P2;SDS_P1;SDS_P2;PMS_P1;PMS_P2;Temp;Humidity;BMP_temperature;BMP_pressure;BME280_temperature;BME280_humidity;BME280_pressure;Samples;Min_cycle;Max_cycle;Signal;HPM_P1;HPM_P2
2022/12/23 00:01:24;;;;;;;18.10;8.33;;;;;;;;;;4988898;28;20022;-64
2022/12/23 00:03:50;;;;;;;18.90;8.10;;;;;;;;;;4989280;28;20030;-64
2022/12/23 00:06:16;;;;;;;17.73;8.30;;;;;;;;;;4988097;28;20465;-64
2022/12/23 00:08:42;;;;;;;16.88;7.70;;;;;;;;;;4987237;28;20477;-63
2022/12/23 00:11:12;;;;;;;16.42;7.80;;;;;;;;;;4990111;28;20039;-65
2022/12/23 00:16:21;;;;;;;14.85;7.38;;;;;;;;;;4979970;28;20030;-65
2022/12/23 00:18:46;;;;;;;16.42;8.30;;;;;;;;;;4989055;28;20022;-65
2022/12/23 00:21:12;;;;;;;16.20;8.03;;;;;;;;;;4985698;28;20046;-64
2022/12/23 00:23:39;;;;;;;16.20;8.07;;;;;;;;;;4992327;28;20030;-64
2022/12/23 00:26:05;;;;;;;14.98;7.28;;;;;;;;;;4992625;28;20486;-64
2022/12/23 00:28:30;;;;;;;13.48;6.68;;;;;;;;;;4991177;28;20026;-64
2022/12/23 00:31:03;;;;;;;12.82;6.35;;;;;;;;;;4989435;28;20046;-64
2022/12/23 00:33:30;;;;;;;12.65;5.75;;;;;;;;;;4991222;28;20031;-63
2022/12/23 00:35:55;;;;;;;12.15;6.20;;;;;;;;;;4991252;28;20038;-64
2022/12/23 00:43:53;;;;;;;12.68;5.88;;;;;;;;;;4998611;28;20084;-64
2022/12/23 00:46:18;;;;;;;15.50;6.00;;;;;;;;;;4992140;28;20022;-64
2022/12/23 00:51:27;;;;;;;10.93;5.72;;;;;;;;;;4991288;28;20033;-64
2022/12/23 00:53:52;;;;;;;9.52;5.05;;;;;;;;;;4992875;28;20042;-64
2022/12/23 00:56:18;;;;;;;10.93;5.40;;;;;;;;;;4992204;28;20469;-64
2022/12/23 00:58:43;;;;;;;10.65;5.28;;;;;;;;;;4990983;28;20110;-64
2022/12/23 01:06:36;;;;;;;11.10;5.40;;;;;;;;;;4990614;28;20029;-64
2022/12/23 01:09:01;;;;;;;10.18;5.35;;;;;;;;;;4991745;28;20019;-65
2022/12/23 01:11:26;;;;;;;10.02;5.10;;;;;;;;;;4990612;28;20147;-64
2022/12/23 01:13:51;;;;;;;10.05;4.72;;;;;;;;;;4989380;28;20393;-64
2022/12/23 01:16:16;;;;;;;10.13;5.38;;;;;;;;;;4990680;28;20043;-64
2022/12/23 01:18:41;;;;;;;10.80;5.63;;;;;;;;;;4988706;28;20105;-65
2022/12/23 01:21:08;;;;;;;11.73;5.40;;;;;;;;;;4987967;28;20076;-65
2022/12/23 01:23:34;;;;;;;10.10;5.43;;;;;;;;;;4989342;28;20031;-65
2022/12/23 01:26:00;;;;;;;12.65;6.00;;;;;;;;;;4990327;28;20022;-64
2022/12/23 01:28:26;;;;;;;8.82;4.57;;;;;;;;;;4990243;28;20034;-65
2022/12/23 01:30:51;;;;;;;10.25;5.68;;;;;;;;;;4988051;28;20022;-65
2022/12/23 01:33:16;;;;;;;10.00;5.27;;;;;;;;;;4988793;28;20027;-65
2022/12/23 01:35:41;;;;;;;10.82;5.65;;;;;;;;;;4991523;28;20030;-65
2022/12/23 01:38:06;;;;;;;10.23;4.97;;;;;;;;;;4989369;28;20036;-65
2022/12/23 01:40:35;;;;;;;12.50;5.50;;;;;;;;;;4989812;28;20050;-64
2022/12/23 01:43:00;;;;;;;10.38;5.15;;;;;;;;;;4988168;28;20022;-65
2022/12/23 01:45:29;;;;;;;8.48;4.47;;;;;;;;;;4988205;28;20113;-65
2022/12/23 01:47:57;;;;;;;9.20;4.70;;;;;;;;;;4987963;28;20105;-64
2022/12/23 01:50:28;;;;;;;11.68;5.10;;;;;;;;;;4985339;28;20508;-64
2022/12/23 01:53:05;;;;;;;11.43;4.85;;;;;;;;;;4988646;28;20032;-64
2022/12/23 01:55:31;;;;;;;12.60;5.25;;;;;;;;;;4987329;28;20131;-64
2022/12/23 01:58:01;;;;;;;10.13;5.47;;;;;;;;;;4989597;28;20022;-64
2022/12/23 02:04:00;;;;;;;9.63;4.65;;;;;;;;;;4966052;28;20034;-65
2022/12/23 02:11:48;;;;;;;8.48;4.25;;;;;;;;;;4979700;28;20094;-65
2022/12/23 02:17:21;;;;;;;9.18;4.30;;;;;;;;;;4986629;28;20057;-65
2022/12/23 02:19:46;;;;;;;9.32;4.35;;;;;;;;;;4985737;28;20081;-65
2022/12/23 02:22:29;;;;;;;10.52;4.70;;;;;;;;;;4988461;28;20105;-65
2022/12/23 02:25:21;;;;;;;11.15;4.75;;;;;;;;;;4989027;28;20018;-64
2022/12/23 02:28:08;;;;;;;9.98;4.78;;;;;;;;;;4983097;28;20117;-65
2022/12/23 02:30:33;;;;;;;10.65;3.88;;;;;;;;;;4988387;28;20485;-64
2022/12/23 02:32:58;;;;;;;9.48;3.80;;;;;;;;;;4986881;28;20552;-64
2022/12/23 02:35:23;;;;;;;8.27;3.80;;;;;;;;;;4986532;28;20493;-65
2022/12/23 02:37:54;;;;;;;7.88;3.85;;;;;;;;;;4986581;28;20060;-64
2022/12/23 02:40:28;;;;;;;8.88;3.92;;;;;;;;;;4998820;28;20026;-65
2022/12/23 02:42:56;;;;;;;8.25;3.97;;;;;;;;;;4987799;28;20177;-65
2022/12/23 02:45:40;;;;;;;7.07;3.20;;;;;;;;;;4986189;28;20474;-64
2022/12/23 02:48:08;;;;;;;9.15;3.67;;;;;;;;;;4986819;28;20493;-65
2022/12/23 02:50:36;;;;;;;7.60;3.20;;;;;;;;;;4986969;28;20034;-65
2022/12/23 02:53:05;;;;;;;9.90;3.63;;;;;;;;;;4988112;28;20557;-65
2022/12/23 02:55:33;;;;;;;9.55;3.08;;;;;;;;;;4988766;28;20030;-65
2022/12/23 02:57:59;;;;;;;6.88;2.70;;;;;;;;;;4988784;28;20027;-65
2022/12/23 03:00:25;;;;;;;7.10;3.17;;;;;;;;;;4983747;28;20026;-65
2022/12/23 03:02:50;;;;;;;7.03;3.42;;;;;;;;;;4990175;28;20034;-65
2022/12/23 03:05:32;;;;;;;8.87;3.73;;;;;;;;;;4989316;28;20156;-65
2022/12/23 03:08:01;;;;;;;7.32;3.00;;;;;;;;;;4987381;28;20023;-65
2022/12/23 03:10:50;;;;;;;7.78;3.10;;;;;;;;;;4987960;28;20454;-65
2022/12/23 03:13:36;;;;;;;6.75;3.22;;;;;;;;;;4989223;28;20116;-65
2022/12/23 03:16:07;;;;;;;7.50;3.42;;;;;;;;;;4989916;28;20062;-65
2022/12/23 03:18:50;;;;;;;6.50;2.95;;;;;;;;;;4988203;28;20101;-65
2022/12/23 03:21:26;;;;;;;7.30;3.30;;;;;;;;;;4989457;28;20025;-65
2022/12/23 03:24:06;;;;;;;9.20;3.22;;;;;;;;;;4990823;28;20113;-65
2022/12/23 03:26:47;;;;;;;7.03;2.85;;;;;;;;;;4986812;28;20494;-65
2022/12/23 03:29:39;;;;;;;6.10;2.35;;;;;;;;;;4987423;28;20635;-65
2022/12/23 03:32:05;;;;;;;7.60;3.20;;;;;;;;;;4988330;28;20041;-65
2022/12/23 03:34:34;;;;;;;7.60;3.13;;;;;;;;;;4976740;28;20550;-64
2022/12/23 03:37:02;;;;;;;8.02;2.90;;;;;;;;;;4989872;28;20089;-65
2022/12/23 03:39:29;;;;;;;9.77;3.28;;;;;;;;;;4987868;28;20034;-66
2022/12/23 03:42:06;;;;;;;8.85;2.92;;;;;;;;;;4984044;28;20026;-65
2022/12/23 03:44:34;;;;;;;8.60;3.22;;;;;;;;;;4988894;28;20073;-65
2022/12/23 03:47:03;;;;;;;9.02;3.15;;;;;;;;;;4988657;28;20101;-65
2022/12/23 03:49:32;;;;;;;7.22;2.85;;;;;;;;;;4988670;28;20018;-65
2022/12/23 03:52:09;;;;;;;10.13;3.83;;;;;;;;;;4986193;28;20069;-65
2022/12/23 03:54:38;;;;;;;9.77;3.20;;;;;;;;;;4986209;28;20113;-65
2022/12/23 03:57:04;;;;;;;7.10;2.90;;;;;;;;;;4990753;28;20864;-63
2022/12/23 03:59:32;;;;;;;8.50;3.33;;;;;;;;;;4988385;28;20053;-64
2022/12/23 04:02:05;;;;;;;11.55;3.33;;;;;;;;;;4991024;28;20018;-64
2022/12/23 04:04:49;;;;;;;6.82;2.70;;;;;;;;;;4993832;28;20030;-65
2022/12/23 04:07:14;;;;;;;;;;;;;;;;;;4991169;28;20077;-65
2022/12/23 04:09:39;;;;;;;8.50;2.83;;;;;;;;;;4989445;28;19999;-64
2022/12/23 04:12:06;;;;;;;8.57;3.17;;;;;;;;;;4991900;28;20080;-63
2022/12/23 04:14:32;;;;;;;9.00;2.97;;;;;;;;;;4991383;28;20038;-63
2022/12/23 04:16:58;;;;;;;7.65;3.38;;;;;;;;;;4993329;28;20037;-64
2022/12/23 04:19:23;;;;;;;10.47;3.17;;;;;;;;;;4994087;28;20487;-65
2022/12/23 04:21:48;;;;;;;10.82;3.63;;;;;;;;;;4990266;28;20454;-64
2022/12/23 04:24:13;;;;;;;8.27;3.50;;;;;;;;;;4992263;28;20442;-64
2022/12/23 04:26:39;;;;;;;9.33;3.27;;;;;;;;;;4992251;28;20089;-64
2022/12/23 04:29:04;;;;;;;8.27;3.25;;;;;;;;;;4991422;28;20557;-64
2022/12/23 04:31:29;;;;;;;7.65;2.50;;;;;;;;;;4990715;28;20117;-64
2022/12/23 04:33:54;;;;;;;8.07;2.83;;;;;;;;;;4992453;28;20026;-64
2022/12/23 04:36:19;;;;;;;6.87;2.77;;;;;;;;;;4991775;28;20446;-64
2022/12/23 04:38:44;;;;;;;5.80;2.47;;;;;;;;;;4992480;28;20533;-65
2022/12/23 04:41:10;;;;;;;9.80;3.10;;;;;;;;;;4990574;28;20018;-65
2022/12/23 04:43:35;;;;;;;6.68;2.92;;;;;;;;;;4991687;28;20389;-65
2022/12/23 04:46:00;;;;;;;7.38;2.92;;;;;;;;;;4992468;28;20509;-65
2022/12/23 04:48:25;;;;;;;6.68;2.55;;;;;;;;;;4992739;28;20030;-65
2022/12/23 04:50:50;;;;;;;7.57;3.00;;;;;;;;;;4991295;28;20026;-66
2022/12/23 04:53:15;;;;;;;7.47;2.63;;;;;;;;;;4989042;28;20508;-64
2022/12/23 04:55:40;;;;;;;6.40;2.33;;;;;;;;;;4991830;28;20110;-64
2022/12/23 04:58:06;;;;;;;5.70;2.13;;;;;;;;;;4992452;28;20022;-64
2022/12/23 05:00:31;;;;;;;5.43;1.87;;;;;;;;;;4991577;28;20050;-63
2022/12/23 05:02:56;;;;;;;6.60;1.60;;;;;;;;;;4991509;28;20108;-66
2022/12/23 05:05:21;;;;;;;4.38;1.83;;;;;;;;;;4993279;28;20481;-64
2022/12/23 05:07:50;;;;;;;4.90;1.40;;;;;;;;;;4988651;28;20105;-65
2022/12/23 05:10:15;;;;;;;3.70;1.10;;;;;;;;;;4992400;28;20035;-64
2022/12/23 05:12:40;;;;;;;2.90;0.93;;;;;;;;;;4991956;28;20093;-64
2022/12/23 05:15:06;;;;;;;4.37;1.20;;;;;;;;;;4989399;28;20569;-64
2022/12/23 05:17:31;;;;;;;3.28;0.80;;;;;;;;;;4991936;28;20022;-64
2022/12/23 05:19:56;;;;;;;3.27;0.73;;;;;;;;;;4991257;28;20022;-64
2022/12/23 05:22:21;;;;;;;3.08;0.50;;;;;;;;;;4990746;28;20041;-64
2022/12/23 05:24:46;;;;;;;4.47;1.20;;;;;;;;;;4989307;28;20031;-65
2022/12/23 05:27:12;;;;;;;1.07;0.30;;;;;;;;;;4989067;28;20030;-65
2022/12/23 05:29:37;;;;;;;0.98;0.40;;;;;;;;;;4983452;28;20478;-65
2022/12/23 05:32:02;;;;;;;1.13;0.30;;;;;;;;;;4987354;28;20037;-65
2022/12/23 05:34:27;;;;;;;1.17;0.40;;;;;;;;;;4992127;28;20462;-65
2022/12/23 05:36:52;;;;;;;1.98;0.40;;;;;;;;;;4995077;28;20441;-64
2022/12/23 05:39:18;;;;;;;0.68;0.28;;;;;;;;;;4987277;28;20089;-63
2022/12/23 05:41:44;;;;;;;1.00;0.43;;;;;;;;;;4987805;28;20117;-63
2022/12/23 05:44:09;;;;;;;2.50;0.40;;;;;;;;;;4988451;28;20470;-65
2022/12/23 05:46:34;;;;;;;1.23;0.33;;;;;;;;;;4987073;28;20101;-64
2022/12/23 05:49:00;;;;;;;2.60;0.50;;;;;;;;;;4982661;28;20131;-64
2022/12/23 05:51:25;;;;;;;2.13;0.50;;;;;;;;;;4987849;28;20029;-65
2022/12/23 05:53:50;;;;;;;1.73;0.50;;;;;;;;;;4981765;28;20489;-64
2022/12/23 05:56:15;;;;;;;5.50;0.75;;;;;;;;;;4984651;28;20039;-65
2022/12/23 05:58:40;;;;;;;1.30;0.38;;;;;;;;;;4989385;28;20033;-64
2022/12/23 06:01:05;;;;;;;3.00;0.40;;;;;;;;;;4986677;28;20110;-65
2022/12/23 06:03:30;;;;;;;1.13;0.32;;;;;;;;;;4988387;28;20022;-64
2022/12/23 06:05:56;;;;;;;1.13;0.30;;;;;;;;;;4983558;28;20022;-64
2022/12/23 06:08:21;;;;;;;2.13;0.55;;;;;;;;;;4984157;28;20032;-64
2022/12/23 06:10:46;;;;;;;0.87;0.37;;;;;;;;;;4980028;28;20081;-63
2022/12/23 06:13:11;;;;;;;1.43;0.30;;;;;;;;;;4979739;28;20909;-64
2022/12/23 06:15:36;;;;;;;2.57;0.50;;;;;;;;;;4975311;28;20027;-64
2022/12/23 06:18:02;;;;;;;1.40;0.40;;;;;;;;;;4985337;28;20085;-63
2022/12/23 06:20:27;;;;;;;2.40;0.60;;;;;;;;;;4981351;28;20026;-63
2022/12/23 06:22:52;;;;;;;2.37;0.57;;;;;;;;;;4984153;28;20054;-70
2022/12/23 06:25:17;;;;;;;0.97;0.30;;;;;;;;;;4976690;28;20034;-65
2022/12/23 06:27:42;;;;;;;1.97;0.40;;;;;;;;;;4978174;28;20457;-64
2022/12/23 06:30:08;;;;;;;2.47;0.40;;;;;;;;;;4976736;28;20117;-65
2022/12/23 06:32:33;;;;;;;1.05;0.38;;;;;;;;;;4982750;28;20050;-63
2022/12/23 06:34:58;;;;;;;2.17;0.50;;;;;;;;;;4981972;28;20028;-63
2022/12/23 06:37:23;;;;;;;2.53;0.60;;;;;;;;;;4984674;28;20054;-64
2022/12/23 06:39:48;;;;;;;1.58;0.40;;;;;;;;;;4981799;28;20473;-64
2022/12/23 06:42:14;;;;;;;2.07;0.60;;;;;;;;;;4979235;28;20034;-64
2022/12/23 06:44:39;;;;;;;1.87;0.43;;;;;;;;;;4987462;28;20477;-64
2022/12/23 06:47:04;;;;;;;2.67;0.50;;;;;;;;;;4989009;28;20118;-64
2022/12/23 06:49:29;;;;;;;3.00;0.50;;;;;;;;;;4987679;28;20081;-62
2022/12/23 06:51:54;;;;;;;1.60;0.50;;;;;;;;;;4989550;28;20018;-65
2022/12/23 06:54:19;;;;;;;2.77;0.70;;;;;;;;;;4990181;28;20497;-64
2022/12/23 06:56:44;;;;;;;3.15;0.70;;;;;;;;;;4978424;28;20027;-64
2022/12/23 06:59:10;;;;;;;2.20;0.40;;;;;;;;;;4989052;28;20054;-64
2022/12/23 07:01:35;;;;;;;2.92;0.40;;;;;;;;;;4984001;28;20070;-64
2022/12/23 07:04:00;;;;;;;2.77;0.60;;;;;;;;;;4982989;28;20030;-64
2022/12/23 07:06:26;;;;;;;1.88;0.55;;;;;;;;;;4991153;28;20038;-64
2022/12/23 07:08:51;;;;;;;3.42;0.52;;;;;;;;;;4991254;28;20022;-63
2022/12/23 07:11:16;;;;;;;1.60;0.40;;;;;;;;;;4986081;28;20503;-64
2022/12/23 07:13:41;;;;;;;1.45;0.50;;;;;;;;;;4981607;28;20047;-64
2022/12/23 07:16:07;;;;;;;3.33;0.47;;;;;;;;;;4988845;28;20057;-64
2022/12/23 07:18:32;;;;;;;1.80;0.50;;;;;;;;;;4991160;28;20402;-65
2022/12/23 07:21:01;;;;;;;2.63;0.60;;;;;;;;;;4990899;28;20394;-65
2022/12/23 07:23:26;;;;;;;2.53;0.43;;;;;;;;;;4987875;28;20461;-64
2022/12/23 07:25:51;;;;;;;1.90;0.60;;;;;;;;;;4984778;28;20023;-64
2022/12/23 07:28:16;;;;;;;1.80;0.40;;;;;;;;;;4991238;28;20469;-64
2022/12/23 07:30:41;;;;;;;1.07;0.40;;;;;;;;;;4992334;28;20037;-62
2022/12/23 07:33:07;;;;;;;2.05;0.40;;;;;;;;;;4995338;28;20473;-64
2022/12/23 07:35:32;;;;;;;2.00;0.63;;;;;;;;;;5014742;28;20469;-64
2022/12/23 07:37:57;;;;;;;5.65;0.80;;;;;;;;;;5014587;28;20068;-64
2022/12/23 07:40:23;;;;;;;3.08;0.90;;;;;;;;;;4993608;28;20065;-64
2022/12/23 07:42:49;;;;;;;2.58;0.90;;;;;;;;;;4993771;28;20026;-64
2022/12/23 07:45:14;;;;;;;3.20;0.90;;;;;;;;;;4993695;28;20080;-64
2022/12/23 07:47:40;;;;;;;2.10;0.60;;;;;;;;;;4992916;28;20029;-65
2022/12/23 07:50:05;;;;;;;2.92;0.70;;;;;;;;;;4991535;28;20084;-64
2022/12/23 07:52:30;;;;;;;3.42;0.80;;;;;;;;;;4989795;28;20112;-64
2022/12/23 07:54:56;;;;;;;4.07;0.80;;;;;;;;;;4988970;28;20038;-64
2022/12/23 07:57:21;;;;;;;1.83;0.50;;;;;;;;;;4989671;28;20501;-64
2022/12/23 07:59:46;;;;;;;3.42;0.80;;;;;;;;;;4988526;28;20061;-64
2022/12/23 08:02:11;;;;;;;2.60;0.60;;;;;;;;;;4990077;28;20041;-64
2022/12/23 08:04:36;;;;;;;5.53;0.77;;;;;;;;;;4990272;28;20113;-64
2022/12/23 08:07:01;;;;;;;1.75;0.50;;;;;;;;;;4990326;28;20026;-64
2022/12/23 08:09:26;;;;;;;3.97;0.80;;;;;;;;;;4990740;28;20033;-64
2022/12/23 08:11:52;;;;;;;1.70;0.40;;;;;;;;;;4986326;28;20468;-65
2022/12/23 08:14:17;;;;;;;3.38;0.93;;;;;;;;;;4980609;28;20042;-63
2022/12/23 08:16:42;;;;;;;1.42;0.50;;;;;;;;;;4982199;28;20030;-64
2022/12/23 08:19:07;;;;;;;2.05;0.57;;;;;;;;;;4986884;28;20523;-64
2022/12/23 08:21:32;;;;;;;6.88;0.75;;;;;;;;;;4978136;28;20026;-64
2022/12/23 08:23:57;;;;;;;2.83;0.80;;;;;;;;;;4985267;28;20046;-64
2022/12/23 08:26:23;;;;;;;1.85;0.50;;;;;;;;;;4978950;28;20576;-64
2022/12/23 08:28:52;;;;;;;1.58;0.50;;;;;;;;;;4982582;28;20021;-65
2022/12/23 08:31:18;;;;;;;2.33;0.63;;;;;;;;;;4994469;28;20022;-64
2022/12/23 08:33:45;;;;;;;2.97;0.70;;;;;;;;;;5010446;28;20025;-66
2022/12/23 08:36:14;;;;;;;3.58;0.55;;;;;;;;;;5010486;28;20029;-64
2022/12/23 08:38:39;;;;;;;1.60;0.50;;;;;;;;;;5010532;28;20422;-64
2022/12/23 08:41:09;;;;;;;1.40;0.47;;;;;;;;;;4996610;28;20053;-65
2022/12/23 08:43:34;;;;;;;1.23;0.40;;;;;;;;;;4990084;28;20029;-65
2022/12/23 08:45:59;;;;;;;2.13;0.50;;;;;;;;;;4989608;28;20023;-64
2022/12/23 08:48:24;;;;;;;1.85;0.68;;;;;;;;;;4990721;28;20483;-63
2022/12/23 08:50:49;;;;;;;2.43;0.80;;;;;;;;;;4988251;28;20023;-64
2022/12/23 08:53:15;;;;;;;1.20;0.50;;;;;;;;;;4990140;28;20741;-63
2022/12/23 08:55:41;;;;;;;1.30;0.40;;;;;;;;;;4989279;28;20477;-64
2022/12/23 08:58:07;;;;;;;1.73;0.40;;;;;;;;;;4990003;28;20057;-63
2022/12/23 09:00:32;;;;;;;2.42;0.40;;;;;;;;;;4990656;28;20475;-65
2022/12/23 09:02:57;;;;;;;1.40;0.45;;;;;;;;;;4989173;28;20023;-65
2022/12/23 09:05:22;;;;;;;0.93;0.40;;;;;;;;;;4988829;28;20041;-65
2022/12/23 09:07:47;;;;;;;1.43;0.40;;;;;;;;;;4989192;28;20109;-65
2022/12/23 09:10:13;;;;;;;2.05;0.52;;;;;;;;;;4992302;28;20532;-65
2022/12/23 09:12:38;;;;;;;2.58;0.57;;;;;;;;;;4990901;28;20084;-66
2022/12/23 09:15:03;;;;;;;3.75;0.65;;;;;;;;;;4992263;28;20051;-67
2022/12/23 09:17:28;;;;;;;1.98;0.50;;;;;;;;;;4991850;28;20529;-67
2022/12/23 09:19:53;;;;;;;1.03;0.33;;;;;;;;;;4990447;28;20033;-66
2022/12/23 09:22:19;;;;;;;2.70;0.55;;;;;;;;;;4991078;28;20034;-65
2022/12/23 09:24:44;;;;;;;3.35;0.65;;;;;;;;;;4992546;28;20031;-66
2022/12/23 09:27:09;;;;;;;1.75;0.52;;;;;;;;;;4991250;28;20026;-65
2022/12/23 09:29:34;;;;;;;4.35;0.70;;;;;;;;;;4993300;28;20068;-66
2022/12/23 09:31:59;;;;;;;2.83;0.63;;;;;;;;;;4992752;28;20536;-66
2022/12/23 09:34:25;;;;;;;2.05;0.47;;;;;;;;;;4991190;28;20026;-66
2022/12/23 09:36:50;;;;;;;1.33;0.40;;;;;;;;;;4991089;28;20018;-66
2022/12/23 09:39:15;;;;;;;2.55;0.50;;;;;;;;;;4992235;28;20021;-66
2022/12/23 09:41:47;;;;;;;2.67;0.60;;;;;;;;;;4991023;28;20098;-66
2022/12/23 09:44:31;;;;;;;2.40;0.60;;;;;;;;;;4972494;28;20023;-66
2022/12/23 09:46:58;;;;;;;2.00;0.50;;;;;;;;;;4979971;28;20034;-65
2022/12/23 09:49:23;;;;;;;2.97;0.70;;;;;;;;;;4986401;28;20034;-66
2022/12/23 09:51:52;;;;;;;2.75;0.70;;;;;;;;;;4989996;28;20109;-66
2022/12/23 09:54:24;;;;;;;4.00;0.80;;;;;;;;;;4990750;28;20041;-66
2022/12/23 09:56:51;;;;;;;2.40;0.70;;;;;;;;;;4988663;28;20018;-66
2022/12/23 09:59:31;;;;;;;2.58;0.70;;;;;;;;;;4990113;28;20026;-66
2022/12/23 10:02:07;;;;;;;1.83;0.65;;;;;;;;;;4989034;28;20466;-66
2022/12/23 10:04:43;;;;;;;0.90;0.40;;;;;;;;;;4997342;28;20037;-66
2022/12/23 10:07:27;;;;;;;1.48;0.50;;;;;;;;;;4991225;28;20034;-66
2022/12/23 10:09:53;;;;;;;1.98;0.55;;;;;;;;;;4997976;28;20983;-66
2022/12/23 10:12:23;;;;;;;1.90;0.60;;;;;;;;;;4990837;28;20033;-66
2022/12/23 10:14:50;;;;;;;1.98;0.55;;;;;;;;;;4991142;28;20390;-67
2022/12/23 10:17:15;;;;;;;;;;;;;;;;;;4991071;28;20466;-66
2022/12/23 10:19:45;;;;;;;2.00;0.52;;;;;;;;;;4991416;28;20365;-66
2022/12/23 10:22:24;;;;;;;3.28;0.70;;;;;;;;;;4995987;28;20018;-67
2022/12/23 10:24:50;;;;;;;2.38;0.57;;;;;;;;;;4984778;28;20445;-66
2022/12/23 10:27:21;;;;;;;2.33;0.70;;;;;;;;;;4990448;28;20030;-66
2022/12/23 10:29:46;;;;;;;1.52;0.60;;;;;;;;;;5000850;28;20381;-66
2022/12/23 10:32:26;;;;;;;2.40;0.60;;;;;;;;;;4992734;28;20029;-65
2022/12/23 10:34:54;;;;;;;2.80;0.68;;;;;;;;;;4990582;28;20793;-65
2022/12/23 10:37:27;;;;;;;2.45;0.73;;;;;;;;;;4988357;28;20461;-67
2022/12/23 10:40:08;;;;;;;1.58;0.65;;;;;;;;;;4990027;28;20237;-61
2022/12/23 10:42:44;;;;;;;2.28;0.60;;;;;;;;;;4984878;28;20020;-67
2022/12/23 10:45:12;;;;;;;2.92;0.90;;;;;;;;;;4988011;28;20576;-66
2022/12/23 10:47:46;;;;;;;3.95;0.70;;;;;;;;;;4987941;28;20022;-65
2022/12/23 10:50:30;;;;;;;1.63;0.52;;;;;;;;;;4987724;28;20043;-65
2022/12/23 10:53:00;;;;;;;2.80;0.80;;;;;;;;;;4989570;28;20034;-65
2022/12/23 10:55:28;;;;;;;1.73;0.68;;;;;;;;;;4991176;28;20374;-65
2022/12/23 10:58:03;;;;;;;2.00;0.77;;;;;;;;;;4991364;28;20026;-65
2022/12/23 11:00:29;;;;;;;2.95;0.75;;;;;;;;;;4991419;28;20191;-65
2022/12/23 11:02:54;;;;;;;3.17;0.90;;;;;;;;;;4989657;28;20121;-65
2022/12/23 11:05:24;;;;;;;2.42;0.77;;;;;;;;;;4991270;28;20026;-65
2022/12/23 11:07:49;;;;;;;3.25;0.70;;;;;;;;;;4991267;28;20408;-65
2022/12/23 11:10:16;;;;;;;2.70;0.90;;;;;;;;;;4991399;28;20109;-64
2022/12/23 11:12:43;;;;;;;3.08;0.88;;;;;;;;;;4991448;28;20022;-65
2022/12/23 11:15:23;;;;;;;2.85;0.82;;;;;;;;;;4989288;28;20521;-65
2022/12/23 11:17:56;;;;;;;2.00;0.77;;;;;;;;;;4991332;28;20061;-65
2022/12/23 11:20:21;;;;;;;2.90;1.00;;;;;;;;;;4991206;28;20101;-65
2022/12/23 11:22:48;;;;;;;4.47;1.17;;;;;;;;;;4991096;28;20117;-65
2022/12/23 11:25:25;;;;;;;3.10;0.95;;;;;;;;;;4990155;28;20496;-65
2022/12/23 11:27:54;;;;;;;2.83;1.05;;;;;;;;;;5000480;28;20057;-65
2022/12/23 11:30:19;;;;;;;2.70;0.98;;;;;;;;;;4990577;28;20367;-65
2022/12/23 11:32:44;;;;;;;3.40;0.80;;;;;;;;;;4991227;28;20076;-65
2022/12/23 11:35:22;;;;;;;2.30;0.70;;;;;;;;;;4990802;28;20465;-69
2022/12/23 11:37:47;;;;;;;2.78;0.90;;;;;;;;;;4990904;28;20465;-65
2022/12/23 11:40:26;;;;;;;2.93;0.80;;;;;;;;;;4989421;28;20101;-65
2022/12/23 11:43:02;;;;;;;2.75;0.85;;;;;;;;;;4990800;28;20022;-65
2022/12/23 11:45:28;;;;;;;3.60;1.00;;;;;;;;;;4986830;28;20057;-64
2022/12/23 11:47:55;;;;;;;;;;;;;;;;;;4989712;28;20061;-64
2022/12/23 11:50:25;;;;;;;2.78;0.90;;;;;;;;;;4988760;28;20390;-64
2022/12/23 11:52:51;;;;;;;2.80;1.00;;;;;;;;;;4990679;28;20092;-65
2022/12/23 11:55:33;;;;;;;2.67;0.90;;;;;;;;;;4989672;28;20045;-64
2022/12/23 11:58:00;;;;;;;2.17;0.90;;;;;;;;;;4990479;28;20026;-65
2022/12/23 12:00:27;;;;;;;2.28;0.80;;;;;;;;;;4987801;28;20026;-66
2022/12/23 12:02:57;;;;;;;2.83;0.80;;;;;;;;;;4990668;28;20022;-64
2022/12/23 12:05:27;;;;;;;2.75;0.77;;;;;;;;;;4989223;28;20246;-65
2022/12/23 12:07:57;;;;;;;2.45;0.80;;;;;;;;;;4988974;28;20031;-64
2022/12/23 12:10:27;;;;;;;3.13;1.02;;;;;;;;;;4987976;28;20019;-66
2022/12/23 12:12:56;;;;;;;2.70;0.90;;;;;;;;;;4989457;28;20031;-64
2022/12/23 12:15:42;;;;;;;3.67;1.27;;;;;;;;;;4989439;28;20030;-65
2022/12/23 12:18:10;;;;;;;2.90;0.93;;;;;;;;;;4986385;28;20030;-65
2022/12/23 12:20:38;;;;;;;2.88;0.95;;;;;;;;;;4993621;28;20037;-65
2022/12/23 12:23:06;;;;;;;3.65;1.10;;;;;;;;;;4982143;28;20027;-64
2022/12/23 12:25:40;;;;;;;3.30;1.05;;;;;;;;;;4995027;28;20054;-65
2022/12/23 12:28:08;;;;;;;3.60;1.25;;;;;;;;;;4974185;28;20033;-64
2022/12/23 12:30:37;;;;;;;3.35;0.98;;;;;;;;;;4974752;28;20450;-64
2022/12/23 12:33:05;;;;;;;2.88;1.00;;;;;;;;;;4974220;28;20061;-65
2022/12/23 12:35:42;;;;;;;3.15;0.80;;;;;;;;;;4986615;28;20026;-66
2022/12/23 12:38:24;;;;;;;3.10;1.00;;;;;;;;;;4998582;28;20049;-65
2022/12/23 12:40:51;;;;;;;3.10;1.10;;;;;;;;;;4992322;28;20026;-66
2022/12/23 12:43:30;;;;;;;4.07;1.20;;;;;;;;;;4993643;28;20049;-66
2022/12/23 12:46:15;;;;;;;3.97;1.20;;;;;;;;;;4993636;28;20037;-67
2022/12/23 12:48:50;;;;;;;8.85;4.00;;;;;;;;;;4993489;28;20027;-67
2022/12/23 12:51:23;;;;;;;3.95;1.40;;;;;;;;;;4993705;28;20121;-66
2022/12/23 12:53:51;;;;;;;4.53;1.50;;;;;;;;;;4993326;28;20030;-66
2022/12/23 12:56:24;;;;;;;9.68;4.95;;;;;;;;;;4991428;28;20022;-66
2022/12/23 12:58:49;;;;;;;7.10;2.85;;;;;;;;;;4989950;28;20030;-66
2022/12/23 13:01:29;;;;;;;12.48;4.15;;;;;;;;;;4980463;28;20028;-66
2022/12/23 13:04:04;;;;;;;14.18;4.20;;;;;;;;;;4992747;28;20102;-66
2022/12/23 13:06:37;;;;;;;11.07;3.22;;;;;;;;;;4974085;28;20019;-66
2022/12/23 13:09:12;;;;;;;13.95;4.60;;;;;;;;;;4973968;28;20030;-66
2022/12/23 13:11:42;;;;;;;8.85;2.38;;;;;;;;;;4982152;28;20021;-66
2022/12/23 13:14:14;;;;;;;19.35;5.35;;;;;;;;;;4991464;28;20069;-66
2022/12/23 13:16:46;;;;;;;13.73;3.80;;;;;;;;;;4993220;28;20026;-67
2022/12/23 13:19:30;;;;;;;15.90;4.53;;;;;;;;;;4992265;28;20018;-67
2022/12/23 13:21:55;;;;;;;;;;;;;;;;;;4990457;28;20029;-66
2022/12/23 13:24:39;;;;;;;16.90;4.28;;;;;;;;;;4995713;28;19906;-66
2022/12/23 13:27:04;;;;;;;;;;;;;;;;;;4986852;28;20022;-66
2022/12/23 13:29:46;;;;;;;5.00;1.98;;;;;;;;;;4984171;28;19910;-65
2022/12/23 13:32:30;;;;;;;3.15;1.17;;;;;;;;;;4978509;28;20046;-66
2022/12/23 13:34:55;;;;;;;2.80;1.00;;;;;;;;;;4979620;28;20466;-66
2022/12/23 13:37:31;;;;;;;3.65;1.27;;;;;;;;;;4989655;28;20490;-66
2022/12/23 13:40:01;;;;;;;2.53;0.80;;;;;;;;;;4978379;28;20018;-66
2022/12/23 13:42:31;;;;;;;2.58;0.85;;;;;;;;;;4991565;28;20145;-66
2022/12/23 13:44:57;;;;;;;2.47;0.80;;;;;;;;;;4989996;28;20019;-66
2022/12/23 13:47:22;;;;;;;3.53;1.00;;;;;;;;;;4985177;28;20367;-66
2022/12/23 13:49:59;;;;;;;2.75;1.00;;;;;;;;;;4992643;28;20022;-66
2022/12/23 13:52:44;;;;;;;3.25;1.00;;;;;;;;;;4989632;28;20061;-65
2022/12/23 13:55:27;;;;;;;3.03;1.10;;;;;;;;;;4988009;28;20181;-66
2022/12/23 13:58:02;;;;;;;3.20;1.00;;;;;;;;;;4983490;28;20022;-64
2022/12/23 14:00:29;;;;;;;2.55;0.82;;;;;;;;;;4992068;28;20023;-65
2022/12/23 14:03:04;;;;;;;3.25;1.20;;;;;;;;;;4990388;28;20105;-65
2022/12/23 14:05:32;;;;;;;8.13;2.70;;;;;;;;;;4991480;28;20449;-65
2022/12/23 14:07:58;;;;;;;6.60;2.80;;;;;;;;;;4992144;28;20030;-66
2022/12/23 14:10:24;;;;;;;5.80;2.10;;;;;;;;;;4991821;28;20040;-65
2022/12/23 14:12:50;;;;;;;8.38;3.50;;;;;;;;;;4990462;28;20101;-65
2022/12/23 14:15:37;;;;;;;6.20;2.67;;;;;;;;;;4989875;28;20054;-65
2022/12/23 14:18:11;;;;;;;5.68;2.20;;;;;;;;;;4991747;28;20432;-65
2022/12/23 14:20:48;;;;;;;4.72;1.92;;;;;;;;;;4991669;28;20026;-66
2022/12/23 14:23:28;;;;;;;3.92;1.35;;;;;;;;;;4998263;28;20030;-66
2022/12/23 14:25:59;;;;;;;4.88;1.75;;;;;;;;;;5011709;28;20049;-66
2022/12/23 14:28:32;;;;;;;4.45;1.40;;;;;;;;;;5011914;28;20091;-66
2022/12/23 14:30:58;;;;;;;4.15;1.30;;;;;;;;;;5011125;28;20464;-66
2022/12/23 14:33:27;;;;;;;3.42;1.25;;;;;;;;;;5006941;28;20061;-66
2022/12/23 14:35:54;;;;;;;3.67;1.20;;;;;;;;;;4991354;28;20054;-67
2022/12/23 14:38:30;;;;;;;4.03;1.20;;;;;;;;;;4992159;28;20030;-65
2022/12/23 14:40:57;;;;;;;4.15;1.25;;;;;;;;;;4991204;28;20080;-66
2022/12/23 14:43:25;;;;;;;3.38;1.13;;;;;;;;;;4991747;28;20461;-65
2022/12/23 14:45:53;;;;;;;3.15;0.98;;;;;;;;;;4987461;28;20034;-65
2022/12/23 14:48:37;;;;;;;3.10;1.10;;;;;;;;;;4988796;28;20018;-66
2022/12/23 14:51:02;;;;;;;;;;;;;;;;;;4972678;28;20521;-66
2022/12/23 14:53:28;;;;;;;3.40;1.20;;;;;;;;;;4978503;28;20357;-65
2022/12/23 14:56:03;;;;;;;4.43;1.30;;;;;;;;;;4991432;28;20121;-65
2022/12/23 14:58:48;;;;;;;3.42;1.20;;;;;;;;;;4991589;28;20122;-65
2022/12/23 15:01:17;;;;;;;3.47;1.30;;;;;;;;;;4966274;28;20049;-65
2022/12/23 15:03:48;;;;;;;5.63;1.85;;;;;;;;;;4991150;28;20014;-66
2022/12/23 15:06:15;;;;;;;6.65;1.95;;;;;;;;;;4991346;28;20026;-66
2022/12/23 15:08:41;;;;;;;4.13;1.70;;;;;;;;;;4991269;28;20025;-65
2022/12/23 15:11:08;;;;;;;6.30;1.88;;;;;;;;;;4990498;28;20026;-66
2022/12/23 15:13:33;;;;;;;5.57;1.55;;;;;;;;;;4991310;28;20056;-66
2022/12/23 15:15:58;;;;;;;6.10;1.50;;;;;;;;;;4983220;28;20117;-66
2022/12/23 15:18:24;;;;;;;5.85;1.60;;;;;;;;;;4985784;28;20069;-66
2022/12/23 15:20:59;;;;;;;5.47;1.85;;;;;;;;;;4988982;28;20026;-65